createdAt,value
2018-09-27T00:00:44.022Z,7.60
2018-09-27T00:02:47.819Z,7.80
2018-09-27T00:04:51.428Z,7.07
2018-09-27T00:06:55.174Z,7.47
2018-09-27T00:08:58.990Z,6.20
2018-09-27T00:11:02.745Z,6.33
2018-09-27T00:13:06.577Z,8.73
2018-09-27T00:15:10.302Z,12.47
2018-09-27T00:17:14.167Z,6.80
2018-09-27T00:19:18.005Z,6.43
2018-09-27T00:21:21.721Z,6.30
2018-09-27T00:23:25.304Z,5.40
2018-09-27T00:25:28.927Z,6.87
2018-09-27T00:27:32.560Z,8.07
2018-09-27T00:29:36.171Z,7.43
2018-09-27T00:31:39.794Z,5.13
2018-09-27T00:33:43.440Z,7.07
2018-09-27T00:35:47.184Z,6.50
2018-09-27T00:37:50.941Z,11.10
2018-09-27T00:39:54.788Z,9.13
2018-09-27T00:41:58.426Z,9.17
2018-09-27T00:44:02.044Z,7.40
2018-09-27T00:46:06.126Z,9.23
2018-09-27T00:48:09.973Z,8.47
2018-09-27T00:50:13.737Z,11.67
2018-09-27T00:52:17.218Z,11.90
2018-09-27T00:54:20.716Z,9.93
2018-09-27T00:56:24.421Z,13.77
2018-09-27T00:58:28.052Z,18.07
2018-09-27T01:00:31.626Z,16.37
2018-09-27T01:02:35.236Z,16.53
2018-09-27T01:04:38.741Z,15.63
2018-09-27T01:06:42.236Z,14.80
2018-09-27T01:08:45.828Z,17.17
2018-09-27T01:10:49.376Z,19.17
2018-09-27T01:12:52.955Z,17.13
2018-09-27T01:14:56.431Z,12.07
2018-09-27T01:16:59.954Z,10.50
2018-09-27T01:19:03.454Z,13.87
2018-09-27T01:21:07.198Z,9.37
2018-09-27T01:23:10.884Z,7.93
2018-09-27T01:25:14.400Z,10.60
2018-09-27T01:27:17.943Z,10.57
2018-09-27T01:29:21.484Z,9.50
2018-09-27T01:31:25.016Z,13.30
2018-09-27T01:33:28.535Z,9.43
2018-09-27T01:35:32.148Z,9.47
2018-09-27T01:37:35.688Z,7.80
2018-09-27T01:39:39.212Z,7.37
2018-09-27T01:41:42.741Z,11.93
2018-09-27T01:43:46.208Z,8.00
2018-09-27T01:45:49.721Z,9.93
2018-09-27T01:47:53.192Z,7.87
2018-09-27T01:49:56.683Z,7.13
2018-09-27T01:52:00.323Z,5.40
2018-09-27T01:54:03.902Z,7.27
2018-09-27T01:56:07.424Z,8.27
2018-09-27T01:58:10.945Z,7.13
2018-09-27T02:00:14.493Z,7.77
2018-09-27T02:02:17.978Z,6.53
2018-09-27T02:04:21.603Z,10.13
2018-09-27T02:06:25.268Z,8.37
2018-09-27T02:08:28.953Z,11.57
2018-09-27T02:10:32.477Z,7.07
2018-09-27T02:12:35.992Z,10.20
2018-09-27T02:14:39.618Z,8.37
2018-09-27T02:16:43.120Z,9.60
2018-09-27T02:18:46.670Z,6.33
2018-09-27T02:20:50.172Z,8.43
2018-09-27T02:22:53.681Z,8.23
2018-09-27T02:24:57.183Z,7.60
2018-09-27T02:27:00.696Z,6.57
2018-09-27T02:29:04.299Z,6.83
2018-09-27T02:31:07.912Z,10.27
2018-09-27T02:33:11.811Z,7.13
2018-09-27T02:35:15.480Z,8.30
2018-09-27T02:37:19.000Z,6.20
2018-09-27T02:39:22.512Z,6.33
2018-09-27T02:41:26.028Z,7.33
2018-09-27T02:43:29.534Z,5.67
2018-09-27T02:45:33.184Z,8.60
2018-09-27T02:47:36.760Z,8.40
2018-09-27T02:49:40.327Z,4.43
2018-09-27T02:51:43.944Z,6.93
2018-09-27T02:53:47.461Z,6.00
2018-09-27T02:55:50.989Z,5.83
2018-09-27T02:57:54.592Z,6.47
2018-09-27T02:59:58.075Z,7.07
2018-09-27T03:02:01.854Z,5.57
2018-09-27T03:04:05.403Z,5.17
2018-09-27T03:06:09.054Z,7.03
2018-09-27T03:08:12.673Z,8.73
2018-09-27T03:10:16.152Z,7.27
2018-09-27T03:12:19.785Z,6.23
2018-09-27T03:14:23.454Z,12.77
2018-09-27T03:16:26.961Z,7.70
2018-09-27T03:18:30.533Z,9.90
2018-09-27T03:20:34.037Z,8.27
2018-09-27T03:22:37.552Z,8.30
2018-09-27T03:24:41.020Z,8.37
2018-09-27T03:26:44.564Z,7.93
2018-09-27T03:28:48.225Z,7.30
2018-09-27T03:30:51.874Z,9.87
2018-09-27T03:32:55.556Z,10.23
2018-09-27T03:34:59.100Z,9.83
2018-09-27T03:37:02.846Z,15.37
2018-09-27T03:39:08.231Z,13.50
2018-09-27T03:41:11.703Z,8.37
2018-09-27T03:43:15.232Z,12.37
2018-09-27T03:45:18.756Z,9.50
2018-09-27T03:47:22.362Z,8.73
2018-09-27T03:49:25.969Z,11.03
2018-09-27T03:51:29.689Z,12.47
2018-09-27T03:53:33.305Z,7.33
2018-09-27T03:55:36.815Z,8.77
2018-09-27T03:57:40.279Z,6.93
2018-09-27T03:59:43.802Z,6.33
2018-09-27T04:01:47.330Z,7.40
2018-09-27T04:03:50.918Z,6.80
2018-09-27T04:05:54.461Z,6.40
2018-09-27T04:07:58.002Z,7.37
2018-09-27T04:10:01.523Z,7.23
2018-09-27T04:12:05.129Z,9.37
2018-09-27T04:14:09.218Z,8.10
2018-09-27T04:16:12.887Z,6.80
2018-09-27T04:18:16.394Z,6.77
2018-09-27T04:20:19.879Z,9.90
2018-09-27T04:22:23.422Z,9.80
2018-09-27T04:24:26.910Z,6.67
2018-09-27T04:26:30.479Z,8.07
2018-09-27T04:28:33.998Z,7.40
2018-09-27T04:30:37.612Z,7.03
2018-09-27T04:32:41.124Z,12.17
2018-09-27T04:34:44.763Z,8.10
2018-09-27T04:36:48.347Z,7.07
2018-09-27T04:38:52.106Z,5.70
2018-09-27T04:40:55.639Z,7.30
2018-09-27T04:42:59.350Z,7.37
2018-09-27T04:45:02.843Z,8.53
2018-09-27T04:47:06.314Z,7.97
2018-09-27T04:49:09.829Z,7.07
2018-09-27T04:51:13.330Z,11.17
2018-09-27T04:53:16.845Z,5.70
2018-09-27T04:55:20.332Z,7.83
2018-09-27T04:57:23.868Z,7.10
2018-09-27T04:59:27.556Z,6.40
2018-09-27T05:01:31.037Z,8.00
2018-09-27T05:03:34.536Z,7.17
2018-09-27T05:05:38.032Z,6.73
2018-09-27T05:07:41.604Z,7.83
2018-09-27T05:09:45.105Z,6.23
2018-09-27T05:11:48.776Z,7.57
2018-09-27T05:13:52.264Z,7.63
2018-09-27T05:15:55.772Z,8.07
2018-09-27T05:17:59.281Z,7.73
2018-09-27T05:20:03.028Z,7.93
2018-09-27T05:22:06.568Z,7.17
2018-09-27T05:24:10.024Z,6.13
2018-09-27T05:26:13.483Z,7.57
2018-09-27T05:28:16.982Z,6.63
2018-09-27T05:30:20.579Z,9.30
2018-09-27T05:32:24.121Z,8.57
2018-09-27T05:34:27.731Z,6.97
2018-09-27T05:36:31.242Z,9.93
2018-09-27T05:38:34.705Z,7.37
2018-09-27T05:40:38.248Z,9.53
2018-09-27T05:42:41.935Z,7.60
2018-09-27T05:44:45.408Z,17.67
2018-09-27T05:46:48.922Z,11.60
2018-09-27T05:48:52.463Z,10.77
2018-09-27T05:50:56.041Z,12.27
2018-09-27T05:52:59.640Z,9.43
2018-09-27T05:55:03.165Z,10.90
2018-09-27T05:57:06.879Z,12.97
2018-09-27T05:59:10.452Z,8.97
2018-09-27T06:01:13.925Z,10.90
2018-09-27T06:03:17.408Z,18.17
2018-09-27T06:05:20.976Z,8.67
2018-09-27T06:07:24.512Z,10.60
2018-09-27T06:09:28.028Z,16.97
2018-09-27T06:11:31.636Z,10.70
2018-09-27T06:13:35.151Z,16.00
2018-09-27T06:15:39.269Z,10.73
2018-09-27T06:17:42.937Z,11.53
2018-09-27T06:19:46.566Z,15.33
2018-09-27T06:21:50.064Z,17.50
2018-09-27T06:23:53.601Z,11.83
2018-09-27T06:25:57.100Z,13.43
2018-09-27T06:28:00.760Z,7.87
2018-09-27T06:30:04.391Z,13.47
2018-09-27T06:32:07.893Z,15.17
2018-09-27T06:34:11.595Z,12.27
2018-09-27T06:36:15.274Z,10.13
2018-09-27T06:38:19.051Z,13.67
2018-09-27T06:40:23.010Z,9.13
2018-09-27T06:42:26.500Z,10.90
2018-09-27T06:44:30.010Z,13.93
2018-09-27T06:46:33.445Z,8.53
2018-09-27T06:48:37.046Z,13.57
2018-09-27T06:50:40.766Z,9.97
2018-09-27T06:52:44.216Z,14.47
2018-09-27T06:54:47.866Z,17.63
2018-09-27T06:56:51.466Z,11.63
2018-09-27T06:58:54.952Z,17.63
2018-09-27T07:00:58.736Z,17.87
2018-09-27T07:03:02.232Z,17.60
2018-09-27T07:05:05.976Z,11.43
2018-09-27T07:07:09.513Z,13.07
2018-09-27T07:09:13.960Z,18.80
2018-09-27T07:11:17.482Z,21.77
2018-09-27T07:13:20.980Z,15.50
2018-09-27T07:15:24.440Z,14.10
2018-09-27T07:17:28.099Z,20.83
2018-09-27T07:19:31.711Z,15.10
2018-09-27T07:21:35.200Z,15.37
2018-09-27T07:23:38.668Z,13.63
2018-09-27T07:25:42.146Z,15.97
2018-09-27T07:27:45.665Z,19.07
2018-09-27T07:29:49.183Z,13.33
2018-09-27T07:31:52.687Z,13.87
2018-09-27T07:33:56.351Z,12.50
2018-09-27T07:35:59.927Z,14.30
2018-09-27T07:38:03.409Z,11.30
2018-09-27T07:40:07.160Z,11.97
2018-09-27T07:42:10.868Z,11.20
2018-09-27T07:44:14.463Z,14.37
2018-09-27T07:46:17.961Z,25.07
2018-09-27T07:48:21.570Z,14.97
2018-09-27T07:50:25.025Z,13.80
2018-09-27T07:52:28.552Z,17.93
2018-09-27T07:54:32.213Z,14.70
2018-09-27T07:56:35.598Z,16.30
2018-09-27T07:58:39.271Z,13.97
2018-09-27T08:00:42.859Z,18.13
2018-09-27T08:02:46.403Z,14.27
2018-09-27T08:04:49.863Z,16.20
2018-09-27T08:06:54.360Z,18.77
2018-09-27T08:08:57.867Z,16.90
2018-09-27T08:11:01.356Z,15.67
2018-09-27T08:13:05.044Z,14.30
2018-09-27T08:15:08.611Z,18.73
2018-09-27T08:17:12.206Z,15.13
2018-09-27T08:19:15.688Z,18.97
2018-09-27T08:21:19.377Z,26.97
2018-09-27T08:23:22.783Z,19.87
2018-09-27T08:25:26.375Z,16.90
2018-09-27T08:27:29.872Z,22.07
2018-09-27T08:29:33.393Z,18.90
2018-09-27T08:31:36.878Z,14.43
2018-09-27T08:33:40.440Z,15.77
2018-09-27T08:35:43.983Z,19.47
2018-09-27T08:37:47.773Z,17.63
2018-09-27T08:39:51.299Z,18.47
2018-09-27T08:41:54.875Z,16.20
2018-09-27T08:43:58.467Z,16.70
2018-09-27T08:46:02.083Z,16.10
2018-09-27T08:48:05.783Z,16.40
2018-09-27T08:50:09.328Z,16.67
2018-09-27T08:52:12.917Z,17.33
2018-09-27T08:54:16.441Z,17.47
2018-09-27T08:56:19.981Z,14.70
2018-09-27T08:58:23.491Z,15.37
2018-09-27T09:00:27.052Z,14.73
2018-09-27T09:02:30.600Z,15.53
2018-09-27T09:04:34.221Z,14.73
2018-09-27T09:06:37.699Z,16.07
2018-09-27T09:08:41.375Z,17.23
2018-09-27T09:10:44.937Z,15.50
2018-09-27T09:12:48.600Z,16.13
2018-09-27T09:14:52.167Z,13.27
2018-09-27T09:16:55.797Z,16.13
2018-09-27T09:18:59.392Z,16.53
2018-09-27T09:21:03.585Z,18.17
2018-09-27T09:23:07.413Z,13.03
2018-09-27T09:25:10.913Z,13.33
2018-09-27T09:27:14.489Z,16.73
2018-09-27T09:29:18.088Z,14.67
2018-09-27T09:31:21.571Z,14.40
2018-09-27T09:33:25.411Z,15.37
2018-09-27T09:35:29.037Z,14.40
2018-09-27T09:37:32.549Z,17.13
2018-09-27T09:39:36.076Z,12.53
2018-09-27T09:41:39.669Z,13.57
2018-09-27T09:43:43.438Z,12.37
2018-09-27T09:45:46.980Z,16.37
2018-09-27T09:47:50.612Z,16.07
2018-09-27T09:50:01.138Z,14.47
2018-09-27T09:52:04.635Z,16.30
2018-09-27T09:54:08.162Z,17.80
2018-09-27T09:56:11.899Z,19.07
2018-09-27T09:58:15.536Z,14.00
2018-09-27T10:00:19.092Z,17.53
2018-09-27T10:02:22.851Z,16.60
2018-09-27T10:04:26.426Z,20.97
2018-09-27T10:06:29.944Z,12.03
2018-09-27T10:08:33.619Z,21.13
2018-09-27T10:10:37.205Z,16.83
2018-09-27T10:12:40.715Z,15.50
2018-09-27T10:14:44.256Z,16.40
2018-09-27T10:16:47.854Z,18.23
2018-09-27T10:18:51.377Z,16.37
2018-09-27T10:20:54.894Z,14.93
2018-09-27T10:22:58.388Z,17.20
2018-09-27T10:25:02.187Z,15.27
2018-09-27T10:27:05.880Z,21.60
2018-09-27T10:29:09.486Z,16.70
2018-09-27T10:31:13.221Z,15.23
2018-09-27T10:33:16.916Z,13.93
2018-09-27T10:35:20.600Z,14.70
2018-09-27T10:37:24.103Z,13.07
2018-09-27T10:39:27.784Z,17.40
2018-09-27T10:41:31.364Z,16.70
2018-09-27T10:43:34.852Z,17.90
2018-09-27T10:45:38.607Z,18.47
2018-09-27T10:47:42.161Z,15.63
2018-09-27T10:49:45.795Z,18.63
2018-09-27T10:51:49.392Z,17.70
2018-09-27T10:53:53.045Z,19.87
2018-09-27T10:55:56.749Z,16.03
2018-09-27T10:58:00.264Z,16.60
2018-09-27T11:00:04.084Z,12.97
2018-09-27T11:02:08.094Z,13.93
2018-09-27T11:04:11.610Z,15.80
2018-09-27T11:06:15.274Z,14.97
2018-09-27T11:08:18.844Z,12.83
2018-09-27T11:10:22.326Z,16.10
2018-09-27T11:12:25.828Z,16.07
2018-09-27T11:14:29.420Z,13.33
2018-09-27T11:16:32.979Z,13.27
2018-09-27T11:18:36.668Z,15.83
2018-09-27T11:20:40.399Z,14.00
2018-09-27T11:22:43.866Z,15.07
2018-09-27T11:24:47.394Z,15.77
2018-09-27T11:26:50.892Z,17.43
2018-09-27T11:28:59.604Z,15.63
2018-09-27T11:31:08.599Z,14.90
2018-09-27T11:33:12.213Z,15.77
2018-09-27T11:35:15.679Z,15.00
2018-09-27T11:37:19.368Z,19.63
2018-09-27T11:39:22.868Z,19.40
2018-09-27T11:41:26.473Z,18.03
2018-09-27T11:43:29.977Z,15.83
2018-09-27T11:45:33.783Z,14.97
2018-09-27T11:47:37.353Z,14.80
2018-09-27T11:49:41.197Z,14.17
2018-09-27T11:51:44.597Z,12.40
2018-09-27T11:53:48.329Z,15.60
2018-09-27T11:55:52.108Z,19.13
2018-09-27T11:57:55.771Z,15.67
2018-09-27T11:59:59.264Z,14.83
2018-09-27T12:02:02.964Z,14.50
2018-09-27T12:04:06.573Z,13.33
2018-09-27T12:06:10.054Z,11.07
2018-09-27T12:08:13.572Z,15.60
2018-09-27T12:10:17.108Z,15.43
2018-09-27T12:12:23.254Z,13.23
2018-09-27T12:14:27.249Z,21.93
2018-09-27T12:16:30.829Z,11.00
2018-09-27T12:18:34.382Z,11.07
2018-09-27T12:20:38.241Z,12.80
2018-09-27T12:22:41.816Z,14.97
2018-09-27T12:24:45.613Z,13.50
2018-09-27T12:26:49.209Z,12.30
2018-09-27T12:28:52.774Z,13.37
2018-09-27T12:30:56.328Z,13.27
2018-09-27T12:32:59.811Z,15.13
2018-09-27T12:35:03.444Z,14.27
2018-09-27T12:37:07.072Z,12.13
2018-09-27T12:39:12.104Z,14.83
2018-09-27T12:41:15.674Z,14.93
2018-09-27T12:43:19.166Z,11.67
2018-09-27T12:45:22.921Z,12.20
2018-09-27T12:47:26.396Z,15.37
2018-09-27T12:49:30.080Z,12.80
2018-09-27T12:51:33.857Z,14.83
2018-09-27T12:53:37.380Z,15.27
2018-09-27T12:55:40.952Z,10.77
2018-09-27T12:57:44.504Z,14.07
2018-09-27T12:59:48.106Z,10.23
2018-09-27T13:01:51.727Z,11.17
2018-09-27T13:03:55.218Z,8.90
2018-09-27T13:05:58.871Z,12.10
2018-09-27T13:08:02.480Z,7.73
2018-09-27T13:10:06.124Z,9.47
2018-09-27T13:12:09.968Z,9.87
2018-09-27T13:14:13.431Z,9.43
2018-09-27T13:16:17.144Z,9.33
2018-09-27T13:18:20.900Z,9.00
2018-09-27T13:20:24.498Z,12.73
2018-09-27T13:22:28.000Z,9.23
2018-09-27T13:24:31.637Z,8.43
2018-09-27T13:26:35.177Z,12.23
2018-09-27T13:28:38.743Z,11.63
2018-09-27T13:30:42.230Z,12.50
2018-09-27T13:32:45.733Z,9.97
2018-09-27T13:34:49.226Z,10.43
2018-09-27T13:36:52.906Z,9.63
2018-09-27T13:38:56.428Z,11.90
2018-09-27T13:40:59.918Z,12.87
2018-09-27T13:43:03.522Z,11.97
2018-09-27T13:45:07.310Z,9.23
2018-09-27T13:47:10.856Z,14.30
2018-09-27T13:49:14.445Z,8.63
2018-09-27T13:51:17.967Z,12.10
2018-09-27T13:53:21.513Z,10.93
2018-09-27T13:55:25.341Z,11.80
2018-09-27T13:57:29.056Z,10.30
2018-09-27T13:59:32.506Z,11.17
2018-09-27T14:01:36.016Z,10.23
2018-09-27T14:03:39.531Z,9.67
2018-09-27T14:05:43.241Z,9.43
2018-09-27T14:07:47.003Z,10.80
2018-09-27T14:09:50.522Z,9.67
2018-09-27T14:11:54.113Z,11.80
2018-09-27T14:13:57.804Z,15.33
2018-09-27T14:16:01.371Z,17.33
2018-09-27T14:18:04.957Z,10.30
2018-09-27T14:20:09.099Z,13.73
2018-09-27T14:22:12.833Z,11.23
2018-09-27T14:24:16.328Z,11.73
2018-09-27T14:26:19.852Z,11.27
2018-09-27T14:28:23.492Z,9.30
2018-09-27T14:30:27.012Z,9.60
2018-09-27T14:32:30.537Z,10.07
2018-09-27T14:34:34.235Z,12.33
2018-09-27T14:36:37.864Z,11.43
2018-09-27T14:38:41.529Z,14.60
2018-09-27T14:40:45.172Z,13.80
2018-09-27T14:42:48.876Z,13.50
2018-09-27T14:44:52.398Z,12.03
2018-09-27T14:46:55.895Z,15.03
2018-09-27T14:48:59.567Z,14.50
2018-09-27T14:51:03.060Z,13.27
2018-09-27T14:53:06.657Z,14.63
2018-09-27T14:55:10.158Z,14.20
2018-09-27T14:57:13.844Z,12.90
2018-09-27T14:59:17.464Z,11.10
2018-09-27T15:01:21.040Z,14.53
2018-09-27T15:03:24.615Z,19.37
2018-09-27T15:05:28.426Z,12.47
2018-09-27T15:07:31.977Z,12.13
2018-09-27T15:09:35.781Z,13.47
2018-09-27T15:11:39.226Z,12.67
2018-09-27T15:13:43.011Z,14.23
2018-09-27T15:15:46.577Z,16.17
2018-09-27T15:17:50.321Z,13.73
2018-09-27T15:19:53.875Z,11.60
2018-09-27T15:21:57.462Z,13.50
2018-09-27T15:24:01.709Z,12.47
2018-09-27T15:26:05.292Z,15.73
2018-09-27T15:28:08.811Z,11.63
2018-09-27T15:30:12.463Z,12.83
2018-09-27T15:32:15.992Z,12.50
2018-09-27T15:34:19.504Z,17.93
2018-09-27T15:36:23.277Z,13.20
2018-09-27T15:38:26.983Z,10.93
2018-09-27T15:40:30.530Z,17.10
2018-09-27T15:42:34.339Z,13.47
2018-09-27T15:44:37.848Z,12.03
2018-09-27T15:46:41.570Z,11.03
2018-09-27T15:48:45.133Z,13.67
2018-09-27T15:50:48.802Z,14.87
2018-09-27T15:52:52.298Z,15.20
2018-09-27T15:54:55.880Z,15.00
2018-09-27T15:56:59.545Z,14.03
2018-09-27T15:59:03.088Z,13.17
2018-09-27T16:01:06.742Z,14.80
2018-09-27T16:03:10.318Z,19.10
2018-09-27T16:05:13.877Z,15.53
2018-09-27T16:07:17.392Z,13.90
2018-09-27T16:09:20.911Z,15.70
2018-09-27T16:11:24.527Z,16.53
2018-09-27T16:13:28.172Z,14.57
2018-09-27T16:15:31.723Z,15.30
2018-09-27T16:17:35.464Z,11.90
2018-09-27T16:19:39.376Z,14.23
2018-09-27T16:21:42.957Z,12.37
2018-09-27T16:23:46.623Z,15.37
2018-09-27T16:25:50.008Z,10.40
2018-09-27T16:27:53.690Z,11.27
2018-09-27T16:29:57.147Z,11.23
2018-09-27T16:32:00.761Z,11.77
2018-09-27T16:34:04.408Z,11.90
2018-09-27T16:36:08.002Z,12.77
2018-09-27T16:38:11.810Z,11.23
2018-09-27T16:40:15.447Z,13.50
2018-09-27T16:42:18.978Z,10.17
2018-09-27T16:44:22.527Z,11.53
2018-09-27T16:46:26.056Z,10.50
2018-09-27T16:48:29.575Z,8.27
2018-09-27T16:50:33.167Z,8.03
2018-09-27T16:52:36.756Z,6.43
2018-09-27T16:54:40.297Z,6.87
2018-09-27T16:56:43.997Z,4.77
2018-09-27T16:58:47.592Z,7.97
2018-09-27T17:00:51.500Z,5.37
2018-09-27T17:02:55.548Z,8.90
2018-09-27T17:04:59.151Z,4.77
2018-09-27T17:07:03.168Z,10.67
2018-09-27T17:09:08.098Z,9.50
2018-09-27T17:11:11.796Z,9.87
2018-09-27T17:13:15.471Z,9.93
2018-09-27T17:15:18.995Z,8.87
2018-09-27T17:17:22.528Z,8.50
2018-09-27T17:19:26.307Z,7.50
2018-09-27T17:21:29.952Z,5.67
2018-09-27T17:23:33.623Z,7.43
2018-09-27T17:25:37.220Z,6.57
2018-09-27T17:27:40.761Z,7.10
2018-09-27T17:29:44.347Z,8.03
2018-09-27T17:31:47.854Z,5.97
2018-09-27T17:33:51.472Z,8.37
2018-09-27T17:35:55.004Z,4.97
2018-09-27T17:37:58.892Z,8.20
2018-09-27T17:40:02.667Z,5.47
2018-09-27T17:42:06.197Z,8.83
2018-09-27T17:44:09.737Z,8.17
2018-09-27T17:46:13.394Z,4.67
2018-09-27T17:48:16.971Z,4.83
2018-09-27T17:50:20.680Z,7.27
2018-09-27T17:52:24.457Z,6.10
2018-09-27T17:54:27.953Z,15.33
2018-09-27T17:56:31.810Z,7.53
2018-09-27T17:58:35.534Z,6.00
2018-09-27T18:00:39.349Z,6.17
2018-09-27T18:02:42.967Z,8.03
2018-09-27T18:04:46.677Z,10.13
2018-09-27T18:06:50.403Z,6.07
2018-09-27T18:08:54.074Z,6.30
2018-09-27T18:10:57.741Z,6.03
2018-09-27T18:13:01.346Z,6.83
2018-09-27T18:15:05.211Z,6.00
2018-09-27T18:17:09.225Z,6.23
2018-09-27T18:19:12.954Z,5.27
2018-09-27T18:21:16.768Z,7.77
2018-09-27T18:23:20.341Z,4.13
2018-09-27T18:25:23.899Z,95.47
2018-09-27T18:27:27.553Z,113.70
2018-09-27T18:29:34.323Z,46.97
2018-09-27T18:31:38.132Z,21.00
2018-09-27T18:33:41.630Z,11.07
2018-09-27T18:35:45.169Z,8.00
2018-09-27T18:37:49.280Z,7.03
2018-09-27T18:39:52.884Z,8.00
2018-09-27T18:41:56.492Z,8.33
2018-09-27T18:44:00.237Z,11.23
2018-09-27T18:46:03.917Z,9.63
2018-09-27T18:48:07.535Z,7.40
2018-09-27T18:50:11.372Z,7.73
2018-09-27T18:52:15.026Z,7.70
2018-09-27T18:54:18.656Z,8.10
2018-09-27T18:56:22.208Z,7.67
2018-09-27T18:58:25.789Z,7.63
2018-09-27T19:00:29.430Z,4.63
2018-09-27T19:02:32.996Z,8.60
2018-09-27T19:04:36.648Z,6.23
2018-09-27T19:06:40.359Z,6.27
2018-09-27T19:08:44.009Z,5.10
2018-09-27T19:10:47.699Z,6.33
2018-09-27T19:12:51.348Z,10.10
2018-09-27T19:14:54.907Z,5.63
2018-09-27T19:16:58.518Z,4.40
2018-09-27T19:19:02.017Z,4.23
2018-09-27T19:21:05.738Z,9.07
2018-09-27T19:23:09.400Z,4.70
2018-09-27T19:25:12.941Z,9.57
2018-09-27T19:27:16.560Z,6.37
2018-09-27T19:29:20.217Z,6.67
2018-09-27T19:31:23.952Z,6.33
2018-09-27T19:33:27.528Z,8.83
2018-09-27T19:35:31.066Z,15.13
2018-09-27T19:37:34.978Z,10.17
2018-09-27T19:39:38.560Z,9.60
2018-09-27T19:41:42.289Z,8.67
2018-09-27T19:43:45.890Z,8.57
2018-09-27T19:45:49.625Z,7.60
2018-09-27T19:47:53.193Z,7.70
2018-09-27T19:49:56.741Z,8.57
2018-09-27T19:52:00.434Z,6.50
2018-09-27T19:54:04.243Z,7.80
2018-09-27T19:56:08.319Z,8.17
2018-09-27T19:58:11.903Z,6.90
2018-09-27T20:00:15.660Z,7.93
2018-09-27T20:02:19.329Z,7.07
2018-09-27T20:04:22.952Z,11.67
2018-09-27T20:06:26.439Z,11.80
2018-09-27T20:08:30.178Z,7.37
2018-09-27T20:10:33.762Z,11.37
2018-09-27T20:12:37.300Z,8.13
2018-09-27T20:14:40.934Z,8.77
2018-09-27T20:16:44.621Z,9.43
2018-09-27T20:18:48.145Z,9.23
2018-09-27T20:20:51.708Z,9.10
2018-09-27T20:22:55.248Z,9.93
2018-09-27T20:24:58.797Z,12.00
2018-09-27T20:27:02.436Z,10.60
2018-09-27T20:29:06.003Z,9.60
2018-09-27T20:31:09.560Z,7.70
2018-09-27T20:33:13.331Z,7.53
2018-09-27T20:35:16.932Z,8.07
2018-09-27T20:37:20.488Z,6.63
2018-09-27T20:39:24.072Z,7.83
2018-09-27T20:41:27.595Z,9.23
2018-09-27T20:43:31.163Z,8.90
2018-09-27T20:45:34.807Z,9.23
2018-09-27T20:47:38.389Z,6.93
2018-09-27T20:49:41.938Z,9.50
2018-09-27T20:51:45.502Z,12.57
2018-09-27T20:53:49.087Z,8.60
2018-09-27T20:55:52.876Z,8.47
2018-09-27T20:57:56.668Z,12.37
2018-09-27T21:00:00.269Z,9.90
2018-09-27T21:02:03.915Z,8.80
2018-09-27T21:04:07.795Z,10.20
2018-09-27T21:06:11.333Z,9.80
2018-09-27T21:08:14.925Z,9.10
2018-09-27T21:10:18.489Z,9.20
2018-09-27T21:12:22.032Z,6.97
2018-09-27T21:14:25.608Z,10.63
2018-09-27T21:16:29.432Z,10.23
2018-09-27T21:18:33.017Z,9.73
2018-09-27T21:20:36.593Z,10.63
2018-09-27T21:22:40.372Z,11.57
2018-09-27T21:24:43.874Z,10.80
2018-09-27T21:26:47.497Z,10.50
2018-09-27T21:28:51.075Z,11.10
2018-09-27T21:30:54.691Z,8.77
2018-09-27T21:32:58.167Z,7.50
2018-09-27T21:35:01.757Z,8.63
2018-09-27T21:37:05.336Z,10.57
2018-09-27T21:39:09.027Z,12.40
2018-09-27T21:41:12.916Z,8.17
2018-09-27T21:43:16.526Z,10.50
2018-09-27T21:45:20.007Z,14.93
2018-09-27T21:47:23.728Z,10.17
2018-09-27T21:49:27.258Z,10.73
2018-09-27T21:51:33.620Z,11.67
2018-09-27T21:53:37.180Z,10.47
2018-09-27T21:55:40.676Z,8.60
2018-09-27T21:57:44.224Z,11.00
2018-09-27T21:59:47.768Z,10.83
2018-09-27T22:01:51.403Z,10.57
2018-09-27T22:03:54.916Z,11.07
2018-09-27T22:05:58.531Z,10.50
2018-09-27T22:08:02.128Z,10.57
2018-09-27T22:10:05.876Z,9.87
2018-09-27T22:12:09.712Z,8.83
2018-09-27T22:14:14.174Z,11.37
2018-09-27T22:16:17.747Z,9.37
2018-09-27T22:18:21.288Z,8.03
2018-09-27T22:20:24.830Z,12.97
2018-09-27T22:22:34.893Z,8.80
2018-09-27T22:24:38.495Z,9.97
2018-09-27T22:26:42.011Z,12.43
2018-09-27T22:28:45.677Z,11.53
2018-09-27T22:30:49.297Z,13.43
2018-09-27T22:32:52.823Z,9.60
2018-09-27T22:34:56.480Z,9.73
2018-09-27T22:37:00.147Z,9.77
2018-09-27T22:39:04.407Z,8.97
2018-09-27T22:41:07.986Z,10.40
2018-09-27T22:43:11.474Z,9.80
2018-09-27T22:45:15.090Z,8.37
2018-09-27T22:47:18.645Z,8.53
2018-09-27T22:49:22.217Z,12.47
2018-09-27T22:51:25.787Z,9.80
2018-09-27T22:53:29.388Z,12.50
2018-09-27T22:55:33.143Z,9.60
2018-09-27T22:57:36.975Z,8.83
2018-09-27T22:59:40.480Z,12.83
2018-09-27T23:01:43.992Z,10.60
2018-09-27T23:03:47.576Z,9.63
2018-09-27T23:05:51.096Z,11.07
2018-09-27T23:07:54.976Z,10.33
2018-09-27T23:09:58.594Z,9.70
2018-09-27T23:12:02.171Z,15.07
2018-09-27T23:14:05.775Z,9.17
2018-09-27T23:16:09.397Z,11.87
2018-09-27T23:18:13.140Z,10.00
2018-09-27T23:20:16.702Z,12.23
2018-09-27T23:22:20.285Z,11.00
2018-09-27T23:24:24.012Z,11.20
2018-09-27T23:26:28.202Z,11.03
2018-09-27T23:28:31.727Z,12.43
2018-09-27T23:30:35.431Z,8.53
2018-09-27T23:32:38.960Z,10.40
2018-09-27T23:34:42.695Z,10.03
2018-09-27T23:36:46.329Z,9.70
2018-09-27T23:38:49.976Z,10.37
2018-09-27T23:40:53.491Z,12.63
2018-09-27T23:42:57.018Z,8.40
2018-09-27T23:45:00.557Z,9.27
2018-09-27T23:47:04.220Z,9.90
2018-09-27T23:49:07.819Z,9.47
2018-09-27T23:51:11.360Z,11.07
2018-09-27T23:53:14.959Z,10.67
2018-09-27T23:55:18.516Z,9.33
2018-09-27T23:57:22.149Z,11.13
2018-09-27T23:59:25.736Z,10.80
